createdAt,value
2023-01-08T00:00:03.331Z,932.96
2023-01-08T00:01:04.341Z,932.92
2023-01-08T00:02:05.391Z,932.93
2023-01-08T00:03:06.157Z,932.91
2023-01-08T00:04:06.763Z,932.89
2023-01-08T00:05:07.039Z,932.89
2023-01-08T00:06:07.397Z,932.83
2023-01-08T00:07:07.917Z,932.88
2023-01-08T00:08:08.138Z,932.83
2023-01-08T00:09:09.067Z,932.86
2023-01-08T00:10:09.421Z,932.82
2023-01-08T00:11:10.361Z,932.82
2023-01-08T00:12:10.772Z,932.81
2023-01-08T00:13:10.988Z,932.84
2023-01-08T00:14:11.625Z,932.77
2023-01-08T00:15:11.895Z,932.75
2023-01-08T00:16:12.595Z,932.75
2023-01-08T00:17:13.578Z,932.72
2023-01-08T00:18:13.907Z,932.73
2023-01-08T00:19:14.868Z,932.7
2023-01-08T00:20:15.083Z,932.69
2023-01-08T00:21:15.609Z,932.72
2023-01-08T00:22:15.920Z,932.71
2023-01-08T00:23:16.823Z,932.68
2023-01-08T00:24:17.050Z,932.69
2023-01-08T00:25:17.880Z,932.72
2023-01-08T00:26:18.802Z,932.66
2023-01-08T00:27:19.437Z,932.66
2023-01-08T00:28:20.364Z,932.64
2023-01-08T00:29:21.422Z,932.61
2023-01-08T00:30:22.020Z,932.67
2023-01-08T00:31:22.512Z,932.63
2023-01-08T00:32:22.852Z,932.62
2023-01-08T00:33:23.076Z,932.63
2023-01-08T00:34:23.737Z,932.59
2023-01-08T00:35:24.166Z,932.56
2023-01-08T00:36:24.822Z,932.55
2023-01-08T00:37:25.188Z,932.54
2023-01-08T00:38:26.106Z,932.52
2023-01-08T00:39:26.791Z,932.52
2023-01-08T00:40:27.825Z,932.51
2023-01-08T00:41:28.022Z,932.46
2023-01-08T00:42:28.983Z,932.48
2023-01-08T00:43:29.905Z,932.48
2023-01-08T00:44:30.302Z,932.47
2023-01-08T00:45:30.759Z,932.46
2023-01-08T00:46:31.175Z,932.45
2023-01-08T00:47:32.229Z,932.45
2023-01-08T00:48:32.554Z,932.45
2023-01-08T00:49:32.774Z,932.46
2023-01-08T00:50:33.678Z,932.43
2023-01-08T00:51:34.597Z,932.4
2023-01-08T00:52:35.553Z,932.36
2023-01-08T00:53:36.501Z,932.35
2023-01-08T00:54:37.443Z,932.32
2023-01-08T00:55:38.081Z,932.34
2023-01-08T00:56:38.286Z,932.3
2023-01-08T00:57:39.200Z,932.32
2023-01-08T00:58:40.211Z,932.28
2023-01-08T00:59:40.575Z,932.3
2023-01-08T01:00:41.635Z,932.34
2023-01-08T01:01:41.931Z,932.27
2023-01-08T01:02:42.686Z,932.29
2023-01-08T01:03:43.038Z,932.29
2023-01-08T01:04:43.229Z,932.3
2023-01-08T01:05:43.954Z,932.28
2023-01-08T01:06:44.461Z,932.3
2023-01-08T01:07:45.503Z,932.32
2023-01-08T01:08:45.760Z,932.34
2023-01-08T01:09:46.399Z,932.34
2023-01-08T01:10:46.751Z,932.34
2023-01-08T01:11:46.953Z,932.36
2023-01-08T01:12:47.183Z,932.32
2023-01-08T01:13:48.157Z,932.36
2023-01-08T01:14:48.410Z,932.34
2023-01-08T01:15:49.251Z,932.32
2023-01-08T01:16:49.518Z,932.32
2023-01-08T01:17:50.237Z,932.3
2023-01-08T01:18:50.656Z,932.33
2023-01-08T01:19:50.893Z,932.35
2023-01-08T01:20:51.208Z,932.4
2023-01-08T01:21:51.427Z,932.38
2023-01-08T01:22:52.040Z,932.36
2023-01-08T01:23:52.974Z,932.37
2023-01-08T01:24:53.641Z,932.38
2023-01-08T01:25:54.193Z,932.34
2023-01-08T01:26:55.136Z,932.36
2023-01-08T01:27:56.083Z,932.31
2023-01-08T01:28:56.587Z,932.38
2023-01-08T01:29:57.025Z,932.32
2023-01-08T01:30:57.865Z,932.29
2023-01-08T01:31:58.528Z,932.26
2023-01-08T01:32:59.572Z,932.27
2023-01-08T01:33:59.929Z,932.22
2023-01-08T01:35:00.149Z,932.16
2023-01-08T01:36:00.715Z,932.14
2023-01-08T01:37:01.641Z,932.15
2023-01-08T01:38:01.838Z,932.18
2023-01-08T01:39:02.502Z,932.17
2023-01-08T01:40:02.711Z,932.21
2023-01-08T01:41:03.049Z,932.24
2023-01-08T01:42:03.281Z,932.31
2023-01-08T01:43:04.216Z,932.31
2023-01-08T01:44:04.428Z,932.28
2023-01-08T01:45:04.928Z,932.29
2023-01-08T01:46:05.957Z,932.26
2023-01-08T01:47:06.348Z,932.25
2023-01-08T01:48:06.742Z,932.23
2023-01-08T01:49:07.120Z,932.18
2023-01-08T01:50:07.598Z,932.15
2023-01-08T01:51:08.121Z,932.13
2023-01-08T01:52:08.615Z,932.08
2023-01-08T01:53:08.952Z,932.07
2023-01-08T01:54:09.183Z,932.04
2023-01-08T01:55:09.563Z,932.05
2023-01-08T01:56:09.937Z,932.03
2023-01-08T01:57:10.857Z,932
2023-01-08T01:58:11.213Z,931.98
2023-01-08T01:59:11.708Z,931.99
2023-01-08T02:00:12.760Z,931.98
2023-01-08T02:01:13.480Z,931.96
2023-01-08T02:02:14.340Z,932
2023-01-08T02:03:15.080Z,931.97
2023-01-08T02:04:15.338Z,931.97
2023-01-08T02:05:16.095Z,931.96
2023-01-08T02:06:17.107Z,931.92
2023-01-08T02:07:17.330Z,931.91
2023-01-08T02:08:18.388Z,931.92
2023-01-08T02:09:19.302Z,931.91
2023-01-08T02:10:19.668Z,931.86
2023-01-08T02:11:20.702Z,931.89
2023-01-08T02:12:20.939Z,931.86
2023-01-08T02:13:21.435Z,931.81
2023-01-08T02:14:21.625Z,931.86
2023-01-08T02:15:22.171Z,931.86
2023-01-08T02:16:23.081Z,931.82
2023-01-08T02:17:23.653Z,931.85
2023-01-08T02:18:24.711Z,931.84
2023-01-08T02:19:24.773Z,931.85
2023-01-08T02:20:25.255Z,931.87
2023-01-08T02:21:25.736Z,931.81
2023-01-08T02:22:25.961Z,931.83
2023-01-08T02:23:26.294Z,931.82
2023-01-08T02:24:27.226Z,931.8
2023-01-08T02:25:28.152Z,931.85
2023-01-08T02:26:28.840Z,931.86
2023-01-08T02:27:29.776Z,931.86
2023-01-08T02:28:29.987Z,931.88
2023-01-08T02:29:30.891Z,931.87
2023-01-08T02:30:31.976Z,931.84
2023-01-08T02:31:32.870Z,931.83
2023-01-08T02:32:33.498Z,931.82
2023-01-08T02:33:34.569Z,931.81
2023-01-08T02:34:35.265Z,931.85
2023-01-08T02:35:36.207Z,931.84
2023-01-08T02:36:36.715Z,931.8
2023-01-08T02:37:37.203Z,931.81
2023-01-08T02:38:37.796Z,931.84
2023-01-08T02:39:38.005Z,931.82
2023-01-08T02:40:38.923Z,931.85
2023-01-08T02:41:39.977Z,931.81
2023-01-08T02:42:40.183Z,931.8
2023-01-08T02:43:40.412Z,931.78
2023-01-08T02:44:41.352Z,931.77
2023-01-08T02:45:41.663Z,931.77
2023-01-08T02:46:42.722Z,931.74
2023-01-08T02:47:42.942Z,931.75
2023-01-08T02:48:43.266Z,931.69
2023-01-08T02:49:43.736Z,931.73
2023-01-08T02:50:44.686Z,931.71
2023-01-08T02:51:45.106Z,931.72
2023-01-08T02:52:46.059Z,931.69
2023-01-08T02:53:46.373Z,931.67
2023-01-08T02:54:47.307Z,931.67
2023-01-08T02:55:48.220Z,931.65
2023-01-08T02:56:48.618Z,931.68
2023-01-08T02:57:49.107Z,931.67
2023-01-08T02:58:50.034Z,931.67
2023-01-08T02:59:50.953Z,931.67
2023-01-08T03:00:51.159Z,931.63
2023-01-08T03:01:51.768Z,931.64
2023-01-08T03:02:52.336Z,931.62
2023-01-08T03:03:53.128Z,931.62
2023-01-08T03:04:54.027Z,931.56
2023-01-08T03:05:54.241Z,931.58
2023-01-08T03:06:55.256Z,931.59
2023-01-08T03:07:56.163Z,931.59
2023-01-08T03:08:56.906Z,931.6
2023-01-08T03:09:57.443Z,931.59
2023-01-08T03:10:58.110Z,931.61
2023-01-08T03:11:58.441Z,931.62
2023-01-08T03:12:59.372Z,931.6
2023-01-08T03:14:00.280Z,931.61
2023-01-08T03:15:00.756Z,931.55
2023-01-08T03:16:01.404Z,931.55
2023-01-08T03:17:02.179Z,931.54
2023-01-08T03:18:02.430Z,931.53
2023-01-08T03:19:03.208Z,931.53
2023-01-08T03:20:03.964Z,931.47
2023-01-08T03:21:04.212Z,931.47
2023-01-08T03:22:05.143Z,931.46
2023-01-08T03:23:05.527Z,931.45
2023-01-08T03:24:06.612Z,931.41
2023-01-08T03:25:06.972Z,931.43
2023-01-08T03:26:07.899Z,931.34
2023-01-08T03:27:08.350Z,931.34
2023-01-08T03:28:08.863Z,931.28
2023-01-08T03:29:09.789Z,931.25
2023-01-08T03:30:10.739Z,931.23
2023-01-08T03:31:11.498Z,931.21
2023-01-08T03:32:11.530Z,931.16
2023-01-08T03:33:12.027Z,931.12
2023-01-08T03:34:12.370Z,931.16
2023-01-08T03:35:12.695Z,931.13
2023-01-08T03:36:13.376Z,931.15
2023-01-08T03:37:13.911Z,931.21
2023-01-08T03:38:14.105Z,931.21
2023-01-08T03:39:15.145Z,931.24
2023-01-08T03:40:16.073Z,931.2
2023-01-08T03:41:17.069Z,931.23
2023-01-08T03:42:17.593Z,931.21
2023-01-08T03:43:18.521Z,931.18
2023-01-08T03:44:18.715Z,931.21
2023-01-08T03:45:18.936Z,931.2
2023-01-08T03:46:19.227Z,931.22
2023-01-08T03:47:19.824Z,931.21
2023-01-08T03:48:20.324Z,931.2
2023-01-08T03:49:20.637Z,931.15
2023-01-08T03:50:20.722Z,931.12
2023-01-08T03:51:21.669Z,931.11
2023-01-08T03:52:21.936Z,931.19
2023-01-08T03:53:22.196Z,931.18
2023-01-08T03:54:22.809Z,931.22
2023-01-08T03:55:23.725Z,931.17
2023-01-08T03:56:24.647Z,931.18
2023-01-08T03:57:25.005Z,931.13
2023-01-08T03:58:25.229Z,931.1
2023-01-08T03:59:26.177Z,931.07
2023-01-08T04:00:26.536Z,931.02
2023-01-08T04:01:26.865Z,931.06
2023-01-08T04:02:27.311Z,931.07
2023-01-08T04:03:28.146Z,931.09
2023-01-08T04:04:28.974Z,931.09
2023-01-08T04:05:29.014Z,931.04
2023-01-08T04:06:29.682Z,930.99
2023-01-08T04:07:30.684Z,931
2023-01-08T04:08:30.899Z,930.93
2023-01-08T04:09:31.242Z,930.9
2023-01-08T04:10:31.446Z,930.85
2023-01-08T04:11:32.389Z,930.85
2023-01-08T04:12:32.730Z,930.86
2023-01-08T04:13:33.373Z,930.9
2023-01-08T04:14:33.598Z,930.86
2023-01-08T04:15:34.257Z,930.77
2023-01-08T04:16:35.351Z,930.76
2023-01-08T04:17:35.696Z,930.8
2023-01-08T04:18:36.622Z,930.79
2023-01-08T04:19:36.991Z,930.83
2023-01-08T04:20:37.593Z,930.78
2023-01-08T04:21:38.197Z,930.77
2023-01-08T04:22:39.134Z,930.81
2023-01-08T04:23:39.328Z,930.85
2023-01-08T04:24:40.013Z,930.91
2023-01-08T04:25:40.666Z,930.98
2023-01-08T04:26:41.184Z,930.97
2023-01-08T04:27:41.890Z,930.98
2023-01-08T04:28:42.540Z,931.01
2023-01-08T04:29:43.207Z,930.96
2023-01-08T04:30:43.423Z,930.96
2023-01-08T04:31:43.769Z,931.02
2023-01-08T04:32:44.102Z,931.02
2023-01-08T04:33:44.743Z,931.03
2023-01-08T04:34:45.085Z,931.04
2023-01-08T04:35:45.693Z,931.04
2023-01-08T04:36:46.179Z,931.04
2023-01-08T04:37:47.118Z,931
2023-01-08T04:38:48.028Z,931.03
2023-01-08T04:39:48.253Z,931.02
2023-01-08T04:40:48.876Z,931
2023-01-08T04:41:49.080Z,930.99
2023-01-08T04:42:49.238Z,931.01
2023-01-08T04:43:49.460Z,930.94
2023-01-08T04:44:50.375Z,930.88
2023-01-08T04:45:50.741Z,930.78
2023-01-08T04:46:51.071Z,930.64
2023-01-08T04:47:51.937Z,930.52
2023-01-08T04:48:52.872Z,930.41
2023-01-08T04:49:53.490Z,930.37
2023-01-08T04:50:54.119Z,930.32
2023-01-08T04:51:54.755Z,930.21
2023-01-08T04:52:54.976Z,930.16
2023-01-08T04:53:55.900Z,930.16
2023-01-08T04:54:56.522Z,930.21
2023-01-08T04:55:57.464Z,930.26
2023-01-08T04:56:58.409Z,930.23
2023-01-08T04:57:58.779Z,930.27
2023-01-08T04:58:59.719Z,930.21
2023-01-08T05:00:00.633Z,930.19
2023-01-08T05:01:00.981Z,930.12
2023-01-08T05:02:01.527Z,930.12
2023-01-08T05:03:02.067Z,930.13
2023-01-08T05:04:03.023Z,930.13
2023-01-08T05:05:04.045Z,930.13
2023-01-08T05:06:04.114Z,930.15
2023-01-08T05:07:05.024Z,930.18
2023-01-08T05:08:05.463Z,930.13
2023-01-08T05:09:05.676Z,930.16
2023-01-08T05:10:06.314Z,930.12
2023-01-08T05:11:07.235Z,930.13
2023-01-08T05:12:07.501Z,930.02
2023-01-08T05:13:08.543Z,930
2023-01-08T05:14:09.052Z,930.02
2023-01-08T05:15:09.265Z,930.03
2023-01-08T05:16:09.655Z,929.98
2023-01-08T05:17:09.939Z,930.05
2023-01-08T05:18:10.595Z,930.05
2023-01-08T05:19:11.075Z,930.07
2023-01-08T05:20:11.701Z,930.13
2023-01-08T05:21:12.052Z,930.14
2023-01-08T05:22:12.530Z,930.21
2023-01-08T05:23:13.026Z,930.17
2023-01-08T05:24:13.663Z,930.16
2023-01-08T05:25:14.265Z,930.15
2023-01-08T05:26:14.486Z,930.1
2023-01-08T05:27:15.562Z,930.1
2023-01-08T05:28:15.958Z,930.05
2023-01-08T05:29:16.595Z,930.02
2023-01-08T05:30:17.082Z,930
2023-01-08T05:31:18.071Z,929.95
2023-01-08T05:32:18.916Z,929.97
2023-01-08T05:33:19.540Z,929.97
2023-01-08T05:34:20.451Z,929.95
2023-01-08T05:35:20.887Z,929.89
2023-01-08T05:36:20.955Z,929.84
2023-01-08T05:37:21.886Z,929.91
2023-01-08T05:38:22.854Z,929.9
2023-01-08T05:39:23.772Z,929.95
2023-01-08T05:40:24.011Z,929.97
2023-01-08T05:41:24.225Z,930.01
2023-01-08T05:42:24.451Z,930
2023-01-08T05:43:25.070Z,930.02
2023-01-08T05:44:25.999Z,930.03
2023-01-08T05:45:26.632Z,929.98
2023-01-08T05:46:27.170Z,929.96
2023-01-08T05:47:27.784Z,929.95
2023-01-08T05:48:28.118Z,929.97
2023-01-08T05:49:29.024Z,929.97
2023-01-08T05:50:29.721Z,929.99
2023-01-08T05:51:29.829Z,929.98
2023-01-08T05:52:30.050Z,929.99
2023-01-08T05:53:30.698Z,929.99
2023-01-08T05:54:31.215Z,930
2023-01-08T05:55:31.819Z,930.06
2023-01-08T05:56:32.034Z,930.04
2023-01-08T05:57:32.937Z,930.07
2023-01-08T05:58:33.279Z,930.07
2023-01-08T05:59:33.623Z,930.04
2023-01-08T06:00:34.268Z,930.09
2023-01-08T06:01:35.242Z,930.16
2023-01-08T06:02:36.322Z,930.19
2023-01-08T06:03:37.134Z,930.19
2023-01-08T06:04:37.533Z,930.22
2023-01-08T06:05:38.597Z,930.21
2023-01-08T06:06:39.208Z,930.13
2023-01-08T06:07:39.437Z,930.16
2023-01-08T06:08:40.187Z,930.08
2023-01-08T06:09:40.794Z,930.08
2023-01-08T06:10:41.121Z,930.09
2023-01-08T06:11:42.037Z,930.04
2023-01-08T06:12:42.239Z,930.02
2023-01-08T06:13:42.562Z,930.06
2023-01-08T06:14:43.480Z,930.06
2023-01-08T06:15:43.908Z,930.03
2023-01-08T06:16:44.077Z,930.02
2023-01-08T06:17:45.029Z,930.04
2023-01-08T06:18:45.968Z,930.09
2023-01-08T06:19:46.181Z,929.99
2023-01-08T06:20:47.209Z,930
2023-01-08T06:21:47.534Z,930.05
2023-01-08T06:22:48.170Z,930.06
2023-01-08T06:23:49.107Z,930.07
2023-01-08T06:24:49.746Z,930.11
2023-01-08T06:25:50.514Z,930.1
2023-01-08T06:26:51.507Z,930.1
2023-01-08T06:27:51.814Z,930.1
2023-01-08T06:28:52.653Z,930.14
2023-01-08T06:29:53.587Z,930.13
2023-01-08T06:30:54.576Z,930.1
2023-01-08T06:31:54.623Z,930.1
2023-01-08T06:32:55.267Z,930.07
2023-01-08T06:33:56.324Z,930.01
2023-01-08T06:34:57.302Z,929.96
2023-01-08T06:35:57.606Z,929.95
2023-01-08T06:36:58.226Z,929.94
2023-01-08T06:37:58.875Z,929.97
2023-01-08T06:38:59.391Z,929.96
2023-01-08T06:39:59.606Z,929.93
2023-01-08T06:40:59.954Z,929.96
2023-01-08T06:42:00.687Z,929.94
2023-01-08T06:43:01.692Z,929.93
2023-01-08T06:44:02.001Z,929.93
2023-01-08T06:45:02.638Z,929.89
2023-01-08T06:46:03.641Z,929.99
2023-01-08T06:47:04.205Z,929.93
2023-01-08T06:48:05.168Z,929.99
2023-01-08T06:49:05.308Z,929.95
2023-01-08T06:50:05.502Z,929.97
2023-01-08T06:51:06.125Z,929.94
2023-01-08T06:52:07.061Z,929.94
2023-01-08T06:53:07.815Z,929.97
2023-01-08T06:54:08.746Z,929.94
2023-01-08T06:55:09.374Z,929.93
2023-01-08T06:56:09.689Z,929.96
2023-01-08T06:57:10.321Z,929.97
2023-01-08T06:58:11.250Z,929.93
2023-01-08T06:59:11.547Z,929.94
2023-01-08T07:00:11.772Z,929.93
2023-01-08T07:01:12.842Z,929.98
2023-01-08T07:02:12.951Z,929.97
2023-01-08T07:03:13.194Z,930
2023-01-08T07:04:14.040Z,930.02
2023-01-08T07:05:14.986Z,929.99
2023-01-08T07:06:16.059Z,929.97
2023-01-08T07:07:16.557Z,929.91
2023-01-08T07:08:17.470Z,929.95
2023-01-08T07:09:17.781Z,929.98
2023-01-08T07:10:20.100Z,930.07
2023-01-08T07:11:18.877Z,930.08
2023-01-08T07:12:19.072Z,930.12
2023-01-08T07:13:19.987Z,930.17
2023-01-08T07:14:20.337Z,930.24
2023-01-08T07:15:21.237Z,930.25
2023-01-08T07:16:21.843Z,930.28
2023-01-08T07:17:22.301Z,930.33
2023-01-08T07:18:22.932Z,930.32
2023-01-08T07:19:23.311Z,930.27
2023-01-08T07:20:23.652Z,930.31
2023-01-08T07:21:24.385Z,930.31
2023-01-08T07:22:24.762Z,930.31
2023-01-08T07:23:24.970Z,930.32
2023-01-08T07:24:25.631Z,930.33
2023-01-08T07:25:26.546Z,930.34
2023-01-08T07:26:27.146Z,930.37
2023-01-08T07:27:27.676Z,930.4
2023-01-08T07:28:28.626Z,930.42
2023-01-08T07:29:28.748Z,930.46
2023-01-08T07:30:30.578Z,930.54
2023-01-08T07:31:30.393Z,930.54
2023-01-08T07:32:30.685Z,930.55
2023-01-08T07:33:30.906Z,930.57
2023-01-08T07:34:31.720Z,930.58
2023-01-08T07:35:32.063Z,930.57
2023-01-08T07:36:32.718Z,930.63
2023-01-08T07:37:33.766Z,930.65
2023-01-08T07:38:34.687Z,930.69
2023-01-08T07:39:34.947Z,930.73
2023-01-08T07:40:37.925Z,930.75
2023-01-08T07:41:36.260Z,930.78
2023-01-08T07:42:36.479Z,930.8
2023-01-08T07:43:37.443Z,930.78
2023-01-08T07:44:38.501Z,930.8
2023-01-08T07:45:39.422Z,930.72
2023-01-08T07:46:40.419Z,930.73
2023-01-08T07:47:40.540Z,930.76
2023-01-08T07:48:41.481Z,930.7
2023-01-08T07:49:41.875Z,930.69
2023-01-08T07:50:42.815Z,930.67
2023-01-08T07:51:43.284Z,930.76
2023-01-08T07:52:43.613Z,930.77
2023-01-08T07:53:44.245Z,930.72
2023-01-08T07:54:44.463Z,930.68
2023-01-08T07:55:45.382Z,930.62
2023-01-08T07:56:46.435Z,930.56
2023-01-08T07:57:46.942Z,930.58
2023-01-08T07:58:47.879Z,930.62
2023-01-08T07:59:48.870Z,930.62
2023-01-08T08:00:49.376Z,930.7
2023-01-08T08:01:50.147Z,930.76
2023-01-08T08:02:50.839Z,930.84
2023-01-08T08:03:51.320Z,930.83
2023-01-08T08:04:51.667Z,930.85
2023-01-08T08:05:52.170Z,930.92
2023-01-08T08:06:52.488Z,930.89
2023-01-08T08:07:52.813Z,930.92
2023-01-08T08:08:53.322Z,930.91
2023-01-08T08:09:53.776Z,931
2023-01-08T08:10:54.012Z,930.97
2023-01-08T08:11:54.383Z,930.94
2023-01-08T08:12:54.937Z,930.92
2023-01-08T08:13:56.730Z,930.91
2023-01-08T08:14:56.108Z,930.89
2023-01-08T08:15:56.644Z,930.78
2023-01-08T08:16:57.547Z,930.75
2023-01-08T08:17:57.751Z,930.77
2023-01-08T08:18:58.425Z,930.76
2023-01-08T08:19:59.338Z,930.85
2023-01-08T08:20:59.547Z,930.84
2023-01-08T08:22:00.016Z,930.83
2023-01-08T08:23:00.331Z,930.81
2023-01-08T08:24:00.671Z,930.87
2023-01-08T08:25:00.913Z,930.9
2023-01-08T08:26:01.831Z,930.97
2023-01-08T08:27:02.201Z,930.92
2023-01-08T08:28:02.699Z,930.95
2023-01-08T08:29:03.617Z,930.97
2023-01-08T08:30:04.437Z,931.02
2023-01-08T08:31:05.490Z,931.05
2023-01-08T08:32:05.513Z,931.08
2023-01-08T08:33:06.437Z,931.02
2023-01-08T08:34:06.674Z,931.05
2023-01-08T08:35:07.697Z,931.05
2023-01-08T08:36:08.348Z,931.03
2023-01-08T08:37:08.999Z,930.99
2023-01-08T08:38:09.521Z,931
2023-01-08T08:39:09.923Z,930.91
2023-01-08T08:40:10.442Z,930.8
2023-01-08T08:41:11.457Z,930.79
2023-01-08T08:42:12.166Z,930.83
2023-01-08T08:43:12.807Z,930.84
2023-01-08T08:44:13.730Z,930.81
2023-01-08T08:45:14.775Z,930.76
2023-01-08T08:46:15.306Z,930.71
2023-01-08T08:47:15.840Z,930.66
2023-01-08T08:48:16.802Z,930.72
2023-01-08T08:49:17.721Z,930.72
2023-01-08T08:50:18.100Z,930.75
2023-01-08T08:51:18.356Z,930.79
2023-01-08T08:52:19.116Z,930.82
2023-01-08T08:53:19.738Z,930.77
2023-01-08T08:54:20.163Z,930.81
2023-01-08T08:55:20.377Z,930.87
2023-01-08T08:56:21.302Z,930.91
2023-01-08T08:57:21.631Z,930.86
2023-01-08T08:58:22.587Z,930.88
2023-01-08T08:59:23.540Z,930.8
2023-01-08T09:00:24.251Z,930.78
2023-01-08T09:01:25.386Z,930.81
2023-01-08T09:02:25.999Z,930.81
2023-01-08T09:03:26.320Z,930.87
2023-01-08T09:04:27.130Z,930.88
2023-01-08T09:05:27.744Z,930.87
2023-01-08T09:06:28.669Z,930.85
2023-01-08T09:07:28.994Z,930.83
2023-01-08T09:08:29.051Z,930.83
2023-01-08T09:09:29.576Z,930.81
2023-01-08T09:10:30.601Z,930.85
2023-01-08T09:11:30.812Z,930.84
2023-01-08T09:12:31.887Z,930.8
2023-01-08T09:13:32.392Z,930.82
2023-01-08T09:14:33.072Z,930.79
2023-01-08T09:15:33.611Z,930.81
2023-01-08T09:16:34.630Z,930.77
2023-01-08T09:17:35.519Z,930.78
2023-01-08T09:18:35.878Z,930.77
2023-01-08T09:19:36.518Z,930.76
2023-01-08T09:20:37.114Z,930.82
2023-01-08T09:21:38.060Z,930.85
2023-01-08T09:22:38.828Z,930.89
2023-01-08T09:23:38.879Z,930.92
2023-01-08T09:24:39.795Z,930.94
2023-01-08T09:25:39.993Z,930.95
2023-01-08T09:26:40.918Z,930.97
2023-01-08T09:27:41.950Z,930.92
2023-01-08T09:28:42.180Z,930.94
2023-01-08T09:29:42.541Z,930.9
2023-01-08T09:30:43.026Z,930.88
2023-01-08T09:31:44.077Z,930.87
2023-01-08T09:32:44.737Z,930.89
2023-01-08T09:33:45.466Z,930.9
2023-01-08T09:34:46.804Z,930.85
2023-01-08T09:35:47.137Z,930.84
2023-01-08T09:36:47.331Z,930.85
2023-01-08T09:37:47.666Z,930.78
2023-01-08T09:38:47.713Z,930.75
2023-01-08T09:39:51.063Z,930.72
2023-01-08T09:40:48.831Z,930.68
2023-01-08T09:41:49.074Z,930.7
2023-01-08T09:42:49.394Z,930.71
2023-01-08T09:43:49.908Z,930.72
2023-01-08T09:44:50.130Z,930.7
2023-01-08T09:45:50.478Z,930.69
2023-01-08T09:46:51.031Z,930.73
2023-01-08T09:47:51.417Z,930.71
2023-01-08T09:48:52.087Z,930.78
2023-01-08T09:49:52.986Z,930.74
2023-01-08T09:50:53.650Z,930.8
2023-01-08T09:51:54.283Z,930.83
2023-01-08T09:52:55.333Z,930.84
2023-01-08T09:53:56.300Z,930.9
2023-01-08T09:54:57.078Z,930.86
2023-01-08T09:56:08.898Z,930.93
2023-01-08T09:56:57.674Z,930.91
2023-01-08T09:57:58.758Z,930.92
2023-01-08T09:58:59.269Z,930.91
2023-01-08T09:59:59.775Z,930.93
2023-01-08T10:01:00.659Z,930.88
2023-01-08T10:02:01.075Z,930.87
2023-01-08T10:03:01.971Z,930.86
2023-01-08T10:04:02.479Z,930.84
2023-01-08T10:05:02.736Z,930.83
2023-01-08T10:06:03.502Z,930.79
2023-01-08T10:07:03.738Z,930.74
2023-01-08T10:08:04.347Z,930.69
2023-01-08T10:09:06.571Z,930.58
2023-01-08T10:10:05.483Z,930.58
2023-01-08T10:11:05.936Z,930.49
2023-01-08T10:12:06.865Z,930.5
2023-01-08T10:13:07.938Z,930.45
2023-01-08T10:14:08.877Z,930.45
2023-01-08T10:15:09.578Z,930.46
2023-01-08T10:16:10.701Z,930.44
2023-01-08T10:17:11.517Z,930.46
2023-01-08T10:18:11.787Z,930.48
2023-01-08T10:19:12.001Z,930.48
2023-01-08T10:20:12.214Z,930.46
2023-01-08T10:21:13.213Z,930.48
2023-01-08T10:22:13.705Z,930.53
2023-01-08T10:23:14.325Z,930.55
2023-01-08T10:24:14.949Z,930.5
2023-01-08T10:25:15.479Z,930.5
2023-01-08T10:26:15.695Z,930.43
2023-01-08T10:27:15.899Z,930.4
2023-01-08T10:28:16.933Z,930.35
2023-01-08T10:29:17.190Z,930.35
2023-01-08T10:30:17.414Z,930.43
2023-01-08T10:31:18.423Z,930.51
2023-01-08T10:32:18.512Z,930.51
2023-01-08T10:33:18.733Z,930.47
2023-01-08T10:34:18.935Z,930.42
2023-01-08T10:35:19.146Z,930.42
2023-01-08T10:36:19.381Z,930.47
2023-01-08T10:37:19.909Z,930.55
2023-01-08T10:38:20.179Z,930.55
2023-01-08T10:39:20.491Z,930.56
2023-01-08T10:40:21.471Z,930.55
2023-01-08T10:41:21.666Z,930.51
2023-01-08T10:42:21.944Z,930.5
2023-01-08T10:43:22.185Z,930.51
2023-01-08T10:44:22.684Z,930.48
2023-01-08T10:45:23.612Z,930.45
2023-01-08T10:46:23.907Z,930.44
2023-01-08T10:47:24.162Z,930.44
2023-01-08T10:48:24.671Z,930.42
2023-01-08T10:49:24.942Z,930.39
2023-01-08T10:50:25.577Z,930.39
2023-01-08T10:51:26.653Z,930.42
2023-01-08T10:52:27.592Z,930.45
2023-01-08T10:53:28.246Z,930.48
2023-01-08T10:54:29.190Z,930.49
2023-01-08T10:55:29.411Z,930.55
2023-01-08T10:56:30.352Z,930.55
2023-01-08T10:57:30.704Z,930.52
2023-01-08T10:58:31.214Z,930.48
2023-01-08T10:59:32.195Z,930.51
2023-01-08T11:00:32.432Z,930.51
2023-01-08T11:01:33.163Z,930.48
2023-01-08T11:02:35.814Z,930.51
2023-01-08T11:03:34.998Z,930.48
2023-01-08T11:04:35.213Z,930.48
2023-01-08T11:05:35.889Z,930.47
2023-01-08T11:06:36.844Z,930.46
2023-01-08T11:07:37.342Z,930.41
2023-01-08T11:08:37.572Z,930.4
2023-01-08T11:09:38.053Z,930.37
2023-01-08T11:10:38.268Z,930.33
2023-01-08T11:11:39.289Z,930.27
2023-01-08T11:12:39.510Z,930.24
2023-01-08T11:13:39.731Z,930.2
2023-01-08T11:14:40.670Z,930.22
2023-01-08T11:15:41.732Z,930.17
2023-01-08T11:16:42.070Z,930.11
2023-01-08T11:17:43.046Z,930.09
2023-01-08T11:18:43.385Z,930.11
2023-01-08T11:19:43.757Z,930.05
2023-01-08T11:20:43.856Z,930.02
2023-01-08T11:21:44.229Z,930.03
2023-01-08T11:22:45.155Z,930.04
2023-01-08T11:23:46.217Z,930.04
2023-01-08T11:24:47.167Z,930.03
2023-01-08T11:25:47.383Z,930.02
2023-01-08T11:26:48.302Z,929.99
2023-01-08T11:27:49.227Z,929.94
2023-01-08T11:28:49.471Z,929.9
2023-01-08T11:29:49.690Z,929.87
2023-01-08T11:30:49.963Z,929.88
2023-01-08T11:31:50.440Z,929.85
2023-01-08T11:32:50.583Z,929.82
2023-01-08T11:33:51.080Z,929.85
2023-01-08T11:34:52.025Z,929.84
2023-01-08T11:35:52.244Z,929.84
2023-01-08T11:36:52.486Z,929.81
2023-01-08T11:37:52.691Z,929.78
2023-01-08T11:38:52.930Z,929.75
2023-01-08T11:39:53.960Z,929.68
2023-01-08T11:40:54.482Z,929.69
2023-01-08T11:41:54.817Z,929.65
2023-01-08T11:42:55.465Z,929.63
2023-01-08T11:43:56.020Z,929.63
2023-01-08T11:44:56.362Z,929.63
2023-01-08T11:45:57.389Z,929.6
2023-01-08T11:46:57.517Z,929.57
2023-01-08T11:47:57.735Z,929.54
2023-01-08T11:48:58.300Z,929.55
2023-01-08T11:49:58.543Z,929.53
2023-01-08T11:50:59.517Z,929.51
2023-01-08T11:52:00.287Z,929.54
2023-01-08T11:53:01.215Z,929.48
2023-01-08T11:54:01.463Z,929.5
2023-01-08T11:55:02.387Z,929.55
2023-01-08T11:56:03.306Z,929.56
2023-01-08T11:57:04.269Z,929.55
2023-01-08T11:58:05.203Z,929.54
2023-01-08T11:59:06.244Z,929.5
2023-01-08T12:00:06.619Z,929.57
2023-01-08T12:01:07.266Z,929.53
2023-01-08T12:02:08.127Z,929.55
2023-01-08T12:03:08.397Z,929.5
2023-01-08T12:04:09.314Z,929.54
2023-01-08T12:05:10.267Z,929.53
2023-01-08T12:06:10.474Z,929.56
2023-01-08T12:07:10.701Z,929.53
2023-01-08T12:08:10.911Z,929.59
2023-01-08T12:09:11.868Z,929.58
2023-01-08T12:10:12.104Z,929.58
2023-01-08T12:11:13.013Z,929.6
2023-01-08T12:12:15.041Z,929.62
2023-01-08T12:13:14.345Z,929.56
2023-01-08T12:14:14.852Z,929.55
2023-01-08T12:15:15.070Z,929.54
2023-01-08T12:16:15.656Z,929.48
2023-01-08T12:17:16.000Z,929.52
2023-01-08T12:18:16.536Z,929.45
2023-01-08T12:19:16.762Z,929.42
2023-01-08T12:20:17.790Z,929.39
2023-01-08T12:21:18.444Z,929.35
2023-01-08T12:22:18.807Z,929.33
2023-01-08T12:23:19.293Z,929.32
2023-01-08T12:24:19.828Z,929.36
2023-01-08T12:25:20.072Z,929.29
2023-01-08T12:26:20.315Z,929.29
2023-01-08T12:27:23.293Z,929.28
2023-01-08T12:28:20.783Z,929.28
2023-01-08T12:29:21.294Z,929.23
2023-01-08T12:30:21.644Z,929.19
2023-01-08T12:31:22.829Z,929.16
2023-01-08T12:32:23.536Z,929.16
2023-01-08T12:33:24.241Z,929.15
2023-01-08T12:34:25.173Z,929.12
2023-01-08T12:35:25.534Z,929.09
2023-01-08T12:36:26.499Z,929.11
2023-01-08T12:37:26.745Z,929.13
2023-01-08T12:38:27.681Z,929.09